Time;durP1;ratioP1;P1;durP2;ratioP2;P2;SDS_P1;SDS_P2;PMS_P1;PMS_P2;Temp;Humidity;BMP_temperature;BMP_pressure;BME280_temperature;BME280_humidity;BME280_pressure;Samples;Min_cycle;Max_cycle;Signal;HPM_P1;HPM_P2
2023/01/04 00:01:55;;;;;;;28.77;26.90;;;;;;;;;;10009209;28;20054;-67
2023/01/04 00:06:52;;;;;;;28.13;26.42;;;;;;;;;;10012746;28;20506;-67
2023/01/04 00:11:48;;;;;;;26.60;24.92;;;;;;;;;;10017768;28;20051;-68
2023/01/04 00:16:44;;;;;;;26.15;24.17;;;;;;;;;;10017376;28;20741;-67
2023/01/04 00:21:40;;;;;;;24.55;22.95;;;;;;;;;;10010157;28;20047;-67
2023/01/04 00:26:37;;;;;;;22.70;20.73;;;;;;;;;;10015187;29;20082;-66
2023/01/04 00:31:33;;;;;;;21.45;20.00;;;;;;;;;;10008627;29;20122;-66
2023/01/04 00:36:31;;;;;;;22.13;20.52;;;;;;;;;;10022936;29;20087;-67
2023/01/04 00:41:27;;;;;;;20.23;18.70;;;;;;;;;;10019596;29;20051;-67
2023/01/04 00:46:43;;;;;;;18.88;17.45;;;;;;;;;;10027415;28;20051;-67
2023/01/04 00:51:40;;;;;;;16.35;15.07;;;;;;;;;;10006087;28;20502;-68
2023/01/04 00:56:37;;;;;;;18.08;16.50;;;;;;;;;;10024512;29;20048;-67
2023/01/04 01:01:33;;;;;;;16.40;14.88;;;;;;;;;;10022071;28;20494;-67
2023/01/04 01:06:30;;;;;;;15.02;13.82;;;;;;;;;;10002391;28;20506;-68
2023/01/04 01:11:27;;;;;;;14.70;13.55;;;;;;;;;;10022903;28;20108;-68
2023/01/04 01:16:24;;;;;;;16.05;14.77;;;;;;;;;;10015174;28;20729;-68
2023/01/04 01:21:40;;;;;;;14.88;13.77;;;;;;;;;;10009520;28;20052;-68
2023/01/04 01:26:36;;;;;;;14.75;13.75;;;;;;;;;;10017076;28;20055;-67
2023/01/04 01:31:33;;;;;;;14.50;13.40;;;;;;;;;;10033413;29;20135;-66
2023/01/04 01:36:29;;;;;;;14.00;13.10;;;;;;;;;;9998828;28;20053;-66
2023/01/04 01:41:27;;;;;;;13.45;12.52;;;;;;;;;;10026866;28;20086;-66
2023/01/04 01:46:36;;;;;;;13.48;12.45;;;;;;;;;;10004363;28;20134;-67
2023/01/04 01:51:32;;;;;;;13.68;12.38;;;;;;;;;;10009984;28;20044;-67
2023/01/04 01:56:29;;;;;;;15.43;12.70;;;;;;;;;;10029026;28;20528;-68
2023/01/04 02:01:26;;;;;;;13.10;12.10;;;;;;;;;;10007249;28;20056;-69
2023/01/04 02:06:31;;;;;;;13.60;12.55;;;;;;;;;;10031485;28;20044;-68
2023/01/04 02:11:27;;;;;;;12.20;11.20;;;;;;;;;;10034354;28;20071;-65
2023/01/04 02:16:33;;;;;;;13.85;12.45;;;;;;;;;;10027759;28;20127;-66
2023/01/04 02:21:46;;;;;;;12.45;11.10;;;;;;;;;;10024195;28;20048;-66
2023/01/04 02:26:50;;;;;;;11.77;10.95;;;;;;;;;;10026836;28;20054;-65
2023/01/04 02:31:50;;;;;;;12.13;10.90;;;;;;;;;;10021127;28;20050;-65
2023/01/04 02:37:03;;;;;;;12.02;10.90;;;;;;;;;;10029812;28;20071;-65
2023/01/04 02:42:14;;;;;;;12.68;11.02;;;;;;;;;;10026803;28;20040;-65
2023/01/04 02:47:13;;;;;;;12.10;11.00;;;;;;;;;;10017893;28;20098;-67
2023/01/04 02:52:10;;;;;;;11.60;10.73;;;;;;;;;;10030616;28;20079;-67
2023/01/04 02:57:25;;;;;;;11.23;10.23;;;;;;;;;;10025140;29;20078;-67
2023/01/04 03:07:53;;;;;;;11.40;10.20;;;;;;;;;;10026170;28;20043;-66
2023/01/04 03:12:53;;;;;;;9.57;8.85;;;;;;;;;;10024689;28;20079;-67
2023/01/04 03:17:56;;;;;;;10.82;9.70;;;;;;;;;;10020525;28;20044;-68
2023/01/04 03:49:28;;;;;;;14.52;13.45;;;;;;;;;;10025351;28;20566;-67
2023/01/04 03:54:28;;;;;;;16.33;15.13;;;;;;;;;;10020177;28;20047;-66
2023/01/04 03:59:24;;;;;;;18.23;16.80;;;;;;;;;;10015746;29;20727;-65
2023/01/04 04:09:36;;;;;;;20.85;19.45;;;;;;;;;;10020899;29;20048;-67
2023/01/04 04:14:32;;;;;;;25.40;23.85;;;;;;;;;;10019506;28;20048;-68
2023/01/04 04:19:28;;;;;;;32.08;29.85;;;;;;;;;;10020424;28;20546;-68
2023/01/04 04:24:25;;;;;;;30.08;27.92;;;;;;;;;;10028009;28;20510;-68
2023/01/04 04:29:22;;;;;;;34.55;32.17;;;;;;;;;;10025574;28;20048;-68
2023/01/04 04:34:19;;;;;;;35.72;33.63;;;;;;;;;;10023726;28;20048;-67
2023/01/04 04:39:15;;;;;;;36.75;34.47;;;;;;;;;;10022772;28;20044;-67
2023/01/04 04:44:13;;;;;;;39.00;36.60;;;;;;;;;;10026181;28;20047;-67
2023/01/04 04:49:09;;;;;;;40.08;37.58;;;;;;;;;;10013296;28;20479;-68
2023/01/04 04:54:06;;;;;;;41.67;39.03;;;;;;;;;;10022563;28;20951;-68
2023/01/04 04:59:03;;;;;;;47.17;44.10;;;;;;;;;;10019104;28;20043;-68
2023/01/04 05:04:00;;;;;;;47.78;44.10;;;;;;;;;;10022996;28;20050;-69
2023/01/04 05:08:56;;;;;;;48.47;45.35;;;;;;;;;;10023511;28;20047;-69
2023/01/04 05:13:52;;;;;;;50.85;47.40;;;;;;;;;;10020134;28;20040;-68
2023/01/04 05:18:49;;;;;;;52.35;48.70;;;;;;;;;;10019402;28;20040;-69
2023/01/04 05:23:45;;;;;;;54.00;49.92;;;;;;;;;;10023143;28;20445;-68
2023/01/04 05:28:41;;;;;;;53.15;49.45;;;;;;;;;;10023848;28;20056;-68
2023/01/04 05:33:42;;;;;;;53.28;49.65;;;;;;;;;;10017084;28;20075;-68
2023/01/04 05:38:38;;;;;;;53.28;49.55;;;;;;;;;;10015022;28;20055;-68
2023/01/04 05:43:34;;;;;;;53.50;49.65;;;;;;;;;;10016481;28;20574;-67
2023/01/04 05:48:31;;;;;;;55.40;50.75;;;;;;;;;;10017138;28;20490;-68
2023/01/04 05:53:27;;;;;;;53.13;49.20;;;;;;;;;;10019839;28;20077;-67
2023/01/04 05:58:23;;;;;;;51.63;47.92;;;;;;;;;;10021645;28;20245;-67
2023/01/04 06:03:19;;;;;;;50.20;46.28;;;;;;;;;;10013355;28;20042;-68
2023/01/04 06:08:16;;;;;;;50.85;47.17;;;;;;;;;;10011287;29;20044;-67
2023/01/04 06:13:12;;;;;;;52.65;48.90;;;;;;;;;;10008761;28;20051;-68
2023/01/04 06:18:09;;;;;;;52.65;48.70;;;;;;;;;;10017569;28;20048;-68
2023/01/04 06:23:09;;;;;;;52.63;48.83;;;;;;;;;;10005108;29;20044;-68
2023/01/04 06:28:05;;;;;;;52.78;48.97;;;;;;;;;;10002319;29;20116;-68
2023/01/04 06:33:01;;;;;;;54.25;50.35;;;;;;;;;;10007508;28;20040;-68
2023/01/04 06:37:58;;;;;;;51.05;47.38;;;;;;;;;;10021495;28;20136;-68
2023/01/04 06:42:54;;;;;;;50.90;47.28;;;;;;;;;;10004894;29;20123;-68
2023/01/04 06:47:50;;;;;;;51.90;48.13;;;;;;;;;;10018307;28;20079;-68
2023/01/04 06:52:47;;;;;;;50.47;46.67;;;;;;;;;;10020488;29;20047;-68
2023/01/04 06:57:43;;;;;;;48.17;44.55;;;;;;;;;;10026108;28;20044;-68
2023/01/04 07:02:39;;;;;;;50.60;46.70;;;;;;;;;;10021388;28;20138;-68
2023/01/04 07:07:58;;;;;;;51.08;47.25;;;;;;;;;;10023766;29;20051;-68
2023/01/04 07:13:03;;;;;;;48.83;45.03;;;;;;;;;;10013050;29;20044;-68
2023/01/04 07:18:00;;;;;;;49.88;45.97;;;;;;;;;;10019213;28;20568;-67
2023/01/04 07:22:56;;;;;;;48.78;44.58;;;;;;;;;;10006482;29;20134;-67
2023/01/04 07:27:53;;;;;;;48.45;44.95;;;;;;;;;;10014891;28;20541;-68
2023/01/04 07:32:52;;;;;;;48.05;44.47;;;;;;;;;;10007725;28;20534;-67
2023/01/04 07:37:49;;;;;;;48.88;45.28;;;;;;;;;;10028100;28;20524;-68
2023/01/04 07:42:55;;;;;;;49.63;45.92;;;;;;;;;;10012228;28;20047;-67
2023/01/04 07:47:52;;;;;;;46.33;42.83;;;;;;;;;;10012532;28;20458;-67
2023/01/04 07:52:48;;;;;;;52.53;48.53;;;;;;;;;;10014378;28;20136;-67
2023/01/04 07:57:44;;;;;;;51.67;47.75;;;;;;;;;;10014444;29;20051;-67
2023/01/04 08:02:41;;;;;;;49.88;46.08;;;;;;;;;;10028365;29;20048;-67
2023/01/04 08:07:37;;;;;;;51.05;47.17;;;;;;;;;;10025621;28;20471;-67
2023/01/04 08:12:34;;;;;;;49.45;45.63;;;;;;;;;;10016915;28;20510;-67
2023/01/04 08:17:32;;;;;;;50.75;46.70;;;;;;;;;;10005426;28;20467;-67
2023/01/04 08:22:28;;;;;;;50.33;46.33;;;;;;;;;;10030732;28;20148;-68
2023/01/04 08:27:24;;;;;;;53.58;49.17;;;;;;;;;;10014052;28;20051;-68
2023/01/04 08:32:21;;;;;;;49.72;45.80;;;;;;;;;;10019709;28;20044;-67
2023/01/04 08:37:17;;;;;;;50.63;46.63;;;;;;;;;;10003814;28;20052;-67
2023/01/04 08:42:13;;;;;;;50.03;46.15;;;;;;;;;;10010064;28;20055;-68
2023/01/04 08:47:20;;;;;;;50.95;46.85;;;;;;;;;;10016848;28;20048;-68
2023/01/04 08:52:16;;;;;;;29.13;26.90;;;;;;;;;;10023277;28;20312;-68
2023/01/04 08:57:12;;;;;;;28.67;26.67;;;;;;;;;;10015505;29;20054;-68
2023/01/04 09:02:21;;;;;;;28.13;26.02;;;;;;;;;;10022079;29;20513;-68
2023/01/04 09:07:17;;;;;;;32.20;29.40;;;;;;;;;;10002366;29;20056;-68
2023/01/04 09:12:13;;;;;;;34.97;32.28;;;;;;;;;;10013530;28;20063;-67
2023/01/04 09:17:10;;;;;;;37.03;34.03;;;;;;;;;;10013343;28;20053;-68
2023/01/04 09:22:06;;;;;;;41.00;37.58;;;;;;;;;;10014937;28;20115;-67
2023/01/04 09:27:03;;;;;;;44.67;41.08;;;;;;;;;;10002270;28;20545;-68
2023/01/04 09:31:59;;;;;;;46.60;42.90;;;;;;;;;;10019248;28;20071;-68
2023/01/04 09:36:56;;;;;;;44.42;40.60;;;;;;;;;;10013268;28;20107;-67
2023/01/04 09:41:57;;;;;;;42.63;39.22;;;;;;;;;;10016302;28;20135;-68
2023/01/04 09:46:59;;;;;;;42.72;39.22;;;;;;;;;;10026960;28;20403;-67
2023/01/04 09:52:04;;;;;;;42.97;39.38;;;;;;;;;;10012842;28;20051;-68
2023/01/04 09:57:01;;;;;;;43.13;39.53;;;;;;;;;;10019098;28;20131;-68
2023/01/04 10:02:02;;;;;;;43.35;39.85;;;;;;;;;;10018179;28;20051;-68
2023/01/04 10:06:59;;;;;;;42.43;39.03;;;;;;;;;;10022911;28;20055;-67
2023/01/04 10:12:08;;;;;;;47.83;43.92;;;;;;;;;;10022196;28;20056;-68
2023/01/04 10:17:07;;;;;;;46.33;42.63;;;;;;;;;;10021894;28;20044;-68
2023/01/04 10:22:15;;;;;;;48.90;45.05;;;;;;;;;;10022202;28;20044;-68
2023/01/04 10:27:14;;;;;;;47.03;43.33;;;;;;;;;;10024545;28;20131;-69
2023/01/04 10:32:22;;;;;;;47.53;43.83;;;;;;;;;;10026935;28;20077;-68
2023/01/04 10:37:19;;;;;;;43.92;40.42;;;;;;;;;;10032105;28;20047;-68
2023/01/04 10:42:36;;;;;;;41.72;38.38;;;;;;;;;;10023340;28;20048;-68
2023/01/04 10:47:33;;;;;;;41.05;37.75;;;;;;;;;;10028575;28;20079;-68
2023/01/04 10:52:29;;;;;;;45.30;41.55;;;;;;;;;;10020466;28;20059;-68
2023/01/04 10:57:30;;;;;;;44.30;40.80;;;;;;;;;;10008970;28;20497;-68
2023/01/04 11:02:43;;;;;;;44.53;41.03;;;;;;;;;;10022684;28;20063;-68
2023/01/04 11:07:44;;;;;;;44.03;40.63;;;;;;;;;;10021627;28;20056;-67
2023/01/04 11:12:40;;;;;;;45.25;41.85;;;;;;;;;;10032623;28;20058;-67
2023/01/04 11:17:37;;;;;;;44.25;40.85;;;;;;;;;;10006584;29;20048;-67
2023/01/04 11:22:36;;;;;;;43.40;40.00;;;;;;;;;;10013311;28;20155;-68
2023/01/04 11:27:59;;;;;;;43.40;39.90;;;;;;;;;;10021920;28;20115;-68
2023/01/04 11:33:12;;;;;;;44.47;40.97;;;;;;;;;;10018342;28;20087;-68
2023/01/04 11:38:08;;;;;;;;;;;;;;;;;;10016510;28;20056;-67
2023/01/04 11:43:14;;;;;;;46.63;43.03;;;;;;;;;;10017924;28;19970;-68
2023/01/04 11:48:13;;;;;;;42.45;39.05;;;;;;;;;;10025398;28;20067;-68
2023/01/04 11:53:30;;;;;;;43.42;40.13;;;;;;;;;;10024096;28;21372;-68
2023/01/04 11:58:26;;;;;;;43.53;40.03;;;;;;;;;;10014703;28;20082;-67
2023/01/04 12:03:39;;;;;;;42.80;39.55;;;;;;;;;;10016603;29;20593;-68
2023/01/04 12:08:35;;;;;;;44.70;41.30;;;;;;;;;;10001662;28;20418;-68
2023/01/04 12:13:32;;;;;;;43.92;40.63;;;;;;;;;;10009287;28;20134;-68
2023/01/04 12:18:33;;;;;;;44.30;40.80;;;;;;;;;;10031066;28;20158;-67
2023/01/04 12:23:29;;;;;;;44.05;40.65;;;;;;;;;;10013459;28;20409;-67
2023/01/04 12:28:30;;;;;;;43.50;40.10;;;;;;;;;;10016302;29;20051;-68
2023/01/04 12:33:32;;;;;;;44.83;41.50;;;;;;;;;;10021445;28;20082;-68
2023/01/04 12:38:47;;;;;;;45.50;41.97;;;;;;;;;;10017233;28;20050;-68
2023/01/04 12:43:46;;;;;;;46.47;42.72;;;;;;;;;;10025642;28;20450;-68
2023/01/04 12:53:58;;;;;;;46.88;43.08;;;;;;;;;;10019583;28;20052;-68
2023/01/04 12:59:05;;;;;;;44.83;41.53;;;;;;;;;;10028768;28;20593;-68
2023/01/04 13:04:29;;;;;;;44.40;40.90;;;;;;;;;;10015257;29;20051;-68
2023/01/04 13:09:25;;;;;;;47.00;43.50;;;;;;;;;;10024257;28;20655;-68
2023/01/04 13:14:35;;;;;;;49.35;45.65;;;;;;;;;;10011569;28;20055;-67
2023/01/04 13:19:31;;;;;;;49.65;45.95;;;;;;;;;;10011029;28;20094;-68
2023/01/04 13:24:33;;;;;;;51.25;47.35;;;;;;;;;;10017224;28;20797;-67
2023/01/04 13:29:30;;;;;;;47.17;43.45;;;;;;;;;;10021640;29;20070;-67
2023/01/04 13:34:29;;;;;;;43.97;40.47;;;;;;;;;;10019760;28;20060;-68
2023/01/04 13:39:26;;;;;;;47.47;43.78;;;;;;;;;;10022788;28;20052;-68
2023/01/04 13:44:33;;;;;;;49.67;45.50;;;;;;;;;;10019157;28;20465;-67
2023/01/04 13:49:50;;;;;;;51.17;47.25;;;;;;;;;;10016084;29;20060;-68
2023/01/04 13:54:46;;;;;;;51.20;47.30;;;;;;;;;;10005084;28;20044;-67
2023/01/04 13:59:42;;;;;;;52.30;48.10;;;;;;;;;;10020609;28;20048;-67
2023/01/04 14:04:41;;;;;;;48.78;44.97;;;;;;;;;;10029903;28;20060;-69
2023/01/04 14:09:48;;;;;;;47.60;43.60;;;;;;;;;;10024569;28;20055;-67
2023/01/04 14:14:58;;;;;;;49.13;44.95;;;;;;;;;;10025399;28;20052;-67
2023/01/04 14:20:01;;;;;;;49.20;45.40;;;;;;;;;;10021864;29;20044;-67
2023/01/04 14:24:58;;;;;;;50.80;46.65;;;;;;;;;;10026406;29;20104;-67
2023/01/04 14:30:21;;;;;;;52.58;48.67;;;;;;;;;;10013847;28;20058;-67
2023/01/04 14:35:17;;;;;;;51.58;47.40;;;;;;;;;;10025711;29;20597;-67
2023/01/04 14:40:15;;;;;;;53.15;48.85;;;;;;;;;;10025202;28;20131;-67
2023/01/04 14:45:12;;;;;;;54.67;50.17;;;;;;;;;;10027840;28;20461;-67
2023/01/04 14:50:08;;;;;;;59.83;54.83;;;;;;;;;;10002525;29;20478;-67
2023/01/04 14:55:06;;;;;;;59.30;54.17;;;;;;;;;;10024452;28;20052;-67
2023/01/04 15:00:02;;;;;;;59.53;54.55;;;;;;;;;;10019821;28;20047;-67
2023/01/04 15:04:58;;;;;;;58.50;54.28;;;;;;;;;;10024524;29;20043;-67
2023/01/04 15:09:55;;;;;;;60.60;55.95;;;;;;;;;;10016046;29;20498;-67
2023/01/04 15:14:51;;;;;;;60.35;56.10;;;;;;;;;;10021217;28;20115;-67
2023/01/04 15:19:47;;;;;;;57.90;53.63;;;;;;;;;;10026208;28;20135;-67
2023/01/04 15:24:44;;;;;;;56.35;52.13;;;;;;;;;;10021265;29;20529;-67
2023/01/04 15:29:40;;;;;;;57.17;52.60;;;;;;;;;;10024820;28;20075;-67
2023/01/04 15:34:36;;;;;;;54.55;50.17;;;;;;;;;;10023149;28;20050;-67
2023/01/04 15:39:41;;;;;;;55.97;51.20;;;;;;;;;;10009655;29;20135;-67
2023/01/04 15:44:38;;;;;;;53.67;49.45;;;;;;;;;;10014921;28;20083;-67
2023/01/04 15:49:34;;;;;;;53.22;48.95;;;;;;;;;;10027541;28;20047;-67
2023/01/04 15:54:30;;;;;;;55.67;50.88;;;;;;;;;;10016213;28;20139;-67
2023/01/04 15:59:26;;;;;;;57.08;52.63;;;;;;;;;;10011700;28;20413;-68
2023/01/04 16:04:23;;;;;;;59.13;54.42;;;;;;;;;;10012327;28;20056;-67
2023/01/04 16:09:19;;;;;;;59.55;54.83;;;;;;;;;;10020933;28;20052;-68
2023/01/04 16:14:15;;;;;;;57.13;52.92;;;;;;;;;;10028090;28;20568;-68
2023/01/04 16:19:12;;;;;;;54.83;50.83;;;;;;;;;;10023986;28;20047;-67
2023/01/04 16:24:08;;;;;;;54.40;50.08;;;;;;;;;;10020888;28;20044;-67
2023/01/04 16:29:24;;;;;;;56.17;51.72;;;;;;;;;;10022998;28;20055;-67
2023/01/04 16:34:21;;;;;;;54.08;50.17;;;;;;;;;;10022113;28;20079;-67
2023/01/04 16:39:17;;;;;;;52.22;48.40;;;;;;;;;;10015349;28;20135;-67
2023/01/04 16:44:14;;;;;;;49.50;46.20;;;;;;;;;;10011495;28;20040;-67
2023/01/04 16:49:12;;;;;;;46.38;42.88;;;;;;;;;;10010311;28;20048;-67
2023/01/04 16:54:12;;;;;;;46.35;42.70;;;;;;;;;;10012237;28;20047;-66
2023/01/04 16:59:13;;;;;;;44.13;40.90;;;;;;;;;;10012860;28;20467;-66
2023/01/04 17:04:10;;;;;;;45.47;41.90;;;;;;;;;;10012634;28;20135;-66
2023/01/04 17:09:08;;;;;;;44.78;41.38;;;;;;;;;;10014151;29;20052;-66
2023/01/04 17:14:06;;;;;;;47.60;43.88;;;;;;;;;;10015290;29;20036;-67
2023/01/04 17:19:02;;;;;;;46.05;42.63;;;;;;;;;;10019612;29;20510;-66
2023/01/04 17:23:59;;;;;;;42.20;39.13;;;;;;;;;;10013888;28;20417;-66
2023/01/04 17:28:56;;;;;;;42.97;39.95;;;;;;;;;;10015795;28;20044;-66
2023/01/04 17:33:52;;;;;;;40.75;37.55;;;;;;;;;;10016367;28;20048;-67
2023/01/04 17:38:49;;;;;;;41.45;38.13;;;;;;;;;;10013334;28;20522;-66
2023/01/04 17:43:46;;;;;;;41.60;38.15;;;;;;;;;;10003620;28;20143;-67
2023/01/04 17:48:43;;;;;;;43.90;40.17;;;;;;;;;;10014183;29;20166;-68
2023/01/04 17:53:40;;;;;;;42.13;38.63;;;;;;;;;;10013302;28;20050;-67
2023/01/04 17:58:37;;;;;;;40.67;37.25;;;;;;;;;;9996406;28;20138;-66
2023/01/04 18:03:33;;;;;;;42.00;38.35;;;;;;;;;;9992266;28;20047;-67
2023/01/04 18:08:29;;;;;;;42.22;38.35;;;;;;;;;;10005383;28;20051;-67
2023/01/04 18:13:26;;;;;;;42.17;38.67;;;;;;;;;;10021970;28;20502;-67
2023/01/04 18:18:22;;;;;;;40.60;37.22;;;;;;;;;;10020536;28;20047;-67
2023/01/04 18:23:18;;;;;;;40.20;36.83;;;;;;;;;;10000770;28;20074;-67
2023/01/04 18:28:22;;;;;;;40.85;37.20;;;;;;;;;;10016609;28;20044;-67
2023/01/04 18:33:18;;;;;;;37.58;34.17;;;;;;;;;;10010801;28;20081;-67
2023/01/04 18:38:15;;;;;;;38.13;34.40;;;;;;;;;;10009824;28;20147;-67
2023/01/04 18:43:11;;;;;;;41.42;37.45;;;;;;;;;;10009587;28;20039;-67
2023/01/04 18:48:07;;;;;;;41.55;37.95;;;;;;;;;;10020074;28;20044;-67
2023/01/04 18:53:04;;;;;;;45.80;41.83;;;;;;;;;;10027134;28;20605;-67
2023/01/04 18:58:00;;;;;;;51.97;47.20;;;;;;;;;;10013373;29;20830;-67
2023/01/04 19:02:56;;;;;;;50.22;46.55;;;;;;;;;;10022320;28;20079;-67
2023/01/04 19:07:53;;;;;;;49.90;45.83;;;;;;;;;;10025410;28;20111;-67
2023/01/04 19:12:50;;;;;;;50.80;46.42;;;;;;;;;;10019168;28;20083;-67
2023/01/04 19:17:46;;;;;;;50.10;45.08;;;;;;;;;;10022064;28;20175;-67
2023/01/04 19:22:42;;;;;;;50.67;46.00;;;;;;;;;;10023283;28;20142;-67
2023/01/04 19:27:38;;;;;;;52.22;47.38;;;;;;;;;;10023667;28;20052;-67
2023/01/04 19:32:35;;;;;;;55.92;50.78;;;;;;;;;;10021013;28;20522;-67
2023/01/04 19:37:31;;;;;;;53.08;48.58;;;;;;;;;;10028607;28;20502;-67
2023/01/04 19:42:27;;;;;;;50.67;45.97;;;;;;;;;;10012866;28;20463;-67
2023/01/04 19:47:23;;;;;;;51.42;47.08;;;;;;;;;;10017585;28;20063;-66
2023/01/04 19:52:20;;;;;;;48.72;44.58;;;;;;;;;;10016705;28;20058;-67
2023/01/04 19:57:16;;;;;;;47.42;42.83;;;;;;;;;;10003880;28;20050;-67
2023/01/04 20:02:12;;;;;;;47.13;43.25;;;;;;;;;;10019005;28;20494;-67
2023/01/04 20:07:09;;;;;;;45.88;41.90;;;;;;;;;;10024448;28;20118;-67
2023/01/04 20:12:05;;;;;;;43.72;40.00;;;;;;;;;;10024597;28;20501;-67
2023/01/04 20:17:02;;;;;;;45.78;41.65;;;;;;;;;;10021305;28;20075;-67
2023/01/04 20:21:58;;;;;;;48.50;44.33;;;;;;;;;;10025099;28;20134;-67
2023/01/04 20:26:54;;;;;;;44.15;40.38;;;;;;;;;;10028152;28;20102;-66
2023/01/04 20:31:51;;;;;;;41.67;37.50;;;;;;;;;;10026329;28;20102;-67
2023/01/04 20:36:47;;;;;;;42.53;39.28;;;;;;;;;;10025708;28;20044;-67
2023/01/04 20:46:58;;;;;;;47.25;43.35;;;;;;;;;;10016482;28;20138;-66
2023/01/04 20:51:55;;;;;;;47.70;43.92;;;;;;;;;;10025119;28;20079;-67
2023/01/04 20:56:51;;;;;;;43.67;40.45;;;;;;;;;;10021853;28;20127;-66
2023/01/04 21:01:47;;;;;;;43.88;40.25;;;;;;;;;;10022646;28;20047;-66
2023/01/04 21:06:44;;;;;;;46.05;41.97;;;;;;;;;;10022823;28;20083;-67
2023/01/04 21:11:40;;;;;;;45.72;42.35;;;;;;;;;;10009136;28;20083;-67
2023/01/04 21:16:40;;;;;;;45.75;41.97;;;;;;;;;;10016473;28;20068;-67
2023/01/04 21:21:36;;;;;;;47.80;43.80;;;;;;;;;;10026699;28;20051;-67
2023/01/04 21:26:33;;;;;;;49.50;45.30;;;;;;;;;;10018563;28;20071;-66
2023/01/04 21:31:29;;;;;;;51.28;46.20;;;;;;;;;;10013967;28;20056;-67
2023/01/04 21:36:26;;;;;;;50.17;45.17;;;;;;;;;;10014151;28;20048;-67
2023/01/04 21:41:23;;;;;;;48.85;44.65;;;;;;;;;;10005707;29;20067;-68
2023/01/04 21:46:20;;;;;;;53.03;47.58;;;;;;;;;;10003608;28;20432;-68
2023/01/04 21:51:17;;;;;;;53.72;48.22;;;;;;;;;;9997537;28;20060;-66
2023/01/04 21:56:15;;;;;;;56.78;51.40;;;;;;;;;;10007880;28;20415;-67
2023/01/04 22:01:12;;;;;;;62.92;57.78;;;;;;;;;;9997846;29;20058;-69
2023/01/04 22:06:09;;;;;;;55.92;51.13;;;;;;;;;;10012435;28;20044;-68
2023/01/04 22:11:06;;;;;;;54.38;49.58;;;;;;;;;;10008469;28;20071;-69
2023/01/04 22:16:03;;;;;;;52.30;47.80;;;;;;;;;;10010029;29;20054;-69
2023/01/04 22:21:22;;;;;;;52.67;48.22;;;;;;;;;;10012948;28;20059;-69
2023/01/04 22:26:19;;;;;;;46.58;42.65;;;;;;;;;;10012153;28;20143;-69
2023/01/04 22:31:15;;;;;;;47.08;43.28;;;;;;;;;;10012112;28;20052;-69
2023/01/04 22:36:13;;;;;;;45.75;41.30;;;;;;;;;;10013117;28;20052;-70
2023/01/04 22:41:19;;;;;;;39.05;35.40;;;;;;;;;;10011972;29;20502;-68
2023/01/04 22:46:16;;;;;;;40.78;37.10;;;;;;;;;;10006769;29;20076;-68
2023/01/04 22:51:14;;;;;;;42.95;38.83;;;;;;;;;;10000447;29;20047;-66
2023/01/04 22:56:12;;;;;;;44.88;40.97;;;;;;;;;;10016477;28;20130;-67
2023/01/04 23:01:19;;;;;;;44.38;40.53;;;;;;;;;;10020748;29;20083;-67
2023/01/04 23:06:15;;;;;;;41.85;38.25;;;;;;;;;;10011904;28;20063;-67
2023/01/04 23:11:16;;;;;;;39.15;35.60;;;;;;;;;;10010340;29;20538;-68
2023/01/04 23:16:13;;;;;;;34.90;31.88;;;;;;;;;;10009572;28;20121;-67
2023/01/04 23:21:10;;;;;;;32.50;29.50;;;;;;;;;;10011278;28;20503;-67
2023/01/04 23:26:07;;;;;;;34.00;31.10;;;;;;;;;;10009204;29;20459;-67
2023/01/04 23:31:05;;;;;;;35.83;32.83;;;;;;;;;;10006690;28;20050;-69
2023/01/04 23:36:05;;;;;;;40.28;37.17;;;;;;;;;;10008839;28;20047;-68
2023/01/04 23:41:02;;;;;;;41.50;38.03;;;;;;;;;;10012219;28;20058;-67
2023/01/04 23:45:58;;;;;;;43.80;40.40;;;;;;;;;;10007219;28;20485;-68
2023/01/04 23:50:55;;;;;;;43.00;39.83;;;;;;;;;;10011100;28;20465;-68
2023/01/04 23:55:59;;;;;;;46.25;42.33;;;;;;;;;;10003627;28;20467;-68
